Latest Coastal Weather Observations for Smithton

IDT60701

Issued at 4:52 am EST Thursday 3 September 2026 (issued every 10 minutes, with the page automatically refreshed every 10 minutes)

About coastal observations | Map of coastal stations | Coastal observations for TAS | Marine services | Other Formats
Station Details ID: 091292 Name: SMITHTON AERODROME Lat: -40.83 Lon: 145.08 Height: 7.5 m
Data from the previous 72 hours. | See also: Recent months at Smithton
Date/Time
EST
Wind Sea
Height
m
Swell Vis
km
Cloud Weather Temp
°C
Press
MSL
hPa
Rain since
9am
mm
Dir  Spd
kts
Gust
kts
Height
m
Period
s
Dir
03/04:38am WNW 21 31 - - - - - - - 12.4 1000.1 6.4
03/04:37am WNW 20 28 - - - - - - - 12.3 1000.0 6.4
03/04:30am WNW 21 29 - - - - - - - 12.3 1000.3 4.0
03/04:17am WNW 20 32 - - - - - - - 12.7 1000.3 3.2
03/04:00am WNW 22 29 - - - - - - - 12.7 1000.4 3.2
03/03:30am WNW 19 26 - - - - - - - 12.3 1000.9 3.2
03/03:10am NW 19 26 - - - - - - - 12.6 1001.2 3.0
03/03:00am WNW 20 31 - - - - - - Recent precip. 12.5 1001.7 3.0
03/02:51am WNW 19 31 - - - - - - - 12.4 1001.8 3.0
03/02:30am WNW 17 24 - - - - - - - 12.5 1002.2 2.8
03/02:00am WNW 17 22 - - - - - - - 12.3 1002.8 2.8
03/01:30am WNW 17 25 - - - - - - - 12.0 1003.1 2.8
03/01:14am WNW 18 24 - - - - - - - 12.3 1003.3 1.6
03/01:04am WNW 16 26 - - - - - - - 12.2 1003.5 1.6
03/01:01am WNW 15 23 - - - - - - - 12.1 1003.5 1.6
03/01:00am WNW 14 18 - - - - - - - 12.1 1003.5 1.6
03/12:51am WNW 19 30 - - - - - - - 12.1 1003.5 1.6
03/12:41am WNW 19 31 - - - - - - - 12.3 1003.7 1.6
03/12:30am WNW 17 21 - - - - - - - 12.5 1003.7 1.6
03/12:00am NW 15 19 - - - - - - Recent precip. 12.2 1004.2 1.6
 
Date/Time
EST
Wind Sea
Height
m
Swell Vis
km
Cloud Weather Temp
°C
Press
MSL
hPa
Rain since
9am
mm
Dir  Spd
kts
Gust
kts
Height
m
Period
s
Dir
02/11:30pm NW 15 21 - - - - - - - 12.4 1004.7 1.4
02/11:00pm WNW 13 17 - - - - - - - 12.0 1005.1 1.4
02/10:54pm WNW 14 17 - - - - - - - 11.9 1005.3 1.4
02/10:32pm WNW 16 27 - - - - - - - 12.0 1005.6 1.4
02/10:30pm WNW 15 20 - - - - - - - 12.2 1005.6 1.2
02/10:00pm WNW 13 18 - - - - - - - 11.8 1006.0 1.2
02/09:30pm WNW 13 18 - - - - - - - 11.6 1006.4 1.2
02/09:00pm WNW 12 16 - - - - - - Recent precip. 11.4 1006.6 1.2
02/08:30pm WNW 12 16 - - - - - - - 11.4 1006.9 1.2
02/08:00pm WNW 14 18 - - - - - - - 11.4 1007.1 0.8
02/07:30pm WNW 10 13 - - - - - - - 11.5 1007.3 0.6
02/07:00pm WNW 10 14 - - - - - - - 11.6 1007.2 0.2
02/06:30pm WNW 9 11 - - - - - - - 11.7 1007.2 0.2
02/06:00pm WNW 11 16 - - - - - - - 11.9 1007.2 0.0
02/05:30pm WNW 11 16 - - - - - - - 12.0 1007.3 0.0
02/05:00pm WNW 13 17 - - - - - - - 12.1 1007.4 0.0
02/04:30pm WNW 14 20 - - - - - - - 13.0 1007.6 0.0
02/04:00pm WNW 17 23 - - - - - - - 13.2 1007.5 0.0
02/03:30pm WNW 13 19 - - - - - - - 13.5 1007.9 0.0
02/03:00pm WNW 14 19 - - - - - - - 13.3 1008.1 0.0
02/02:39pm WNW 14 18 - - - - - - - 12.8 1008.3 0.0
02/02:30pm W 16 24 - - - - - - - 12.5 1008.3 0.0
02/02:20pm W 16 26 - - - - - - - 12.0 1008.5 0.0
02/02:08pm W 17 24 - - - - - - - 12.6 1008.5 0.0
02/02:00pm W 17 26 - - - - - - - 12.6 1008.5 0.0
02/01:58pm W 16 26 - - - - - - - 12.8 1008.5 0.0
02/01:30pm WNW 12 16 - - - - - - - 13.0 1009.0 0.0
02/01:00pm WNW 17 23 - - - - - - - 12.4 1009.4 0.0
02/12:30pm WNW 16 24 - - - - - - - 13.3 1009.6 0.0
02/12:00pm WNW 16 22 - - - - - - - 13.1 1009.8 0.0
02/11:30am WNW 14 19 - - - - - - - 12.6 1010.1 0.0
02/11:00am WNW 13 17 - - - - - - - 12.9 1010.2 0.0
02/10:30am WNW 13 17 - - - - - - - 13.2 1010.2 0.0
02/10:06am W 17 25 - - - - - - - 13.7 1010.4 0.0
02/10:00am W 18 25 - - - - - - - 13.6 1010.4 0.0
02/09:56am W 17 24 - - - - - - - 13.7 1010.5 0.0
02/09:30am W 11 14 - - - - - - - 12.4 1010.7 0.0
02/09:00am WNW 11 14 - - - - - - - 12.1 1010.6 7.4
02/08:30am W 11 16 - - - - - - - 11.7 1010.6 7.4
02/08:02am WSW 13 21 - - - - - - - 10.2 1010.7 7.4
02/08:00am WSW 14 21 - - - - - - - 10.2 1010.6 7.4
02/07:52am W 10 21 - - - - - - - 10.3 1010.7 7.4
02/07:30am W 7 10 - - - - - - - 10.0 1010.1 7.4
02/07:00am WSW 7 8 - - - - - - - 9.7 1010.1 7.4
02/06:30am WSW 7 9 - - - - - - - 9.1 1009.7 7.4
02/06:00am W 11 14 - - - - - - - 9.6 1009.5 7.4
02/05:30am W 6 7 - - - - - - - 8.5 1009.3 7.4
02/05:00am W 7 8 - - - - - - - 8.9 1009.3 7.4
02/04:30am W 6 7 - - - - - - - 8.2 1009.1 7.4
02/04:00am W 7 8 - - - - - - - 7.9 1009.1 7.4
02/03:30am W 8 9 - - - - - - - 8.3 1009.0 7.4
02/03:00am W 7 8 - - - - - - - 8.5 1008.8 7.4
02/02:30am W 7 9 - - - - - - - 8.4 1008.9 7.4
02/02:00am W 8 9 - - - - - - - 8.3 1009.0 7.4
02/01:30am W 8 9 - - - - - - - 8.5 1008.9 7.4
02/01:00am W 7 7 - - - - - - - 8.5 1008.9 7.4
02/12:30am WSW 8 9 - - - - - - - 9.1 1008.9 7.4
02/12:00am WSW 9 11 - - - - - - - 9.8 1008.6 7.4
 
Date/Time
EST
Wind Sea
Height
m
Swell Vis
km
Cloud Weather Temp
°C
Press
MSL
hPa
Rain since
9am
mm
Dir  Spd
kts
Gust
kts
Height
m
Period
s
Dir
01/11:30pm SW 9 13 - - - - - - - 10.6 1008.4 7.4
01/11:00pm SW 11 14 - - - - - - - 11.2 1008.4 7.4
01/10:30pm SW 12 15 - - - - - - - 11.5 1008.3 7.4
01/10:00pm WSW 8 11 - - - - - - - 11.7 1008.0 7.4
01/09:30pm WSW 7 9 - - - - - - - 12.0 1007.8 7.4
01/09:00pm WSW 11 14 - - - - - - Recent precip. 12.3 1007.7 7.4
01/08:38pm W 17 29 - - - - - - - 12.7 1007.6 6.8
01/08:33pm W 19 29 - - - - - - - 12.9 1007.5 6.8
01/08:30pm WNW 20 29 - - - - - - - 13.2 1007.4 6.6
01/08:26pm WNW 18 29 - - - - - - - 13.5 1007.2 6.2
01/08:00pm NW 17 21 - - - - - - - 13.4 1007.2 4.2
01/07:45pm NW 17 22 - - - - - - - 13.4 1007.1 4.2
01/07:35pm NW 17 27 - - - - - - - 13.4 1007.2 3.8
01/07:30pm NW 18 27 - - - - - - - 13.5 1007.2 3.8
01/07:00pm NW 16 23 - - - - - - - 13.6 1007.1 2.6
01/06:30pm NW 16 23 - - - - - - - 13.7 1007.0 1.8
01/06:00pm NW 19 27 - - - - - - Rain 13.7 1007.1 1.6
01/05:30pm NW 15 21 - - - - - - - 13.7 1007.1 1.4
01/05:00pm WNW 16 24 - - - - - - - 13.9 1007.1 0.4
01/04:30pm NW 15 23 - - - - - - - 14.4 1007.5 0.0
01/04:00pm NW 13 17 - - - - - - - 14.7 1007.9 0.0
01/03:30pm NW 12 17 - - - - - - - 14.7 1008.1 0.0
01/03:00pm NW 12 16 - - - - - - - 14.7 1008.2 0.0
01/02:30pm NNW 11 15 - - - - - - - 14.6 1008.2 0.0
01/02:00pm NNW 10 15 - - - - - - - 14.5 1008.5 0.0
01/01:30pm N 9 12 - - - - - - - 14.1 1009.4 0.0
01/01:00pm NNW 12 17 - - - - - - - 15.0 1010.4 0.0
01/12:30pm NNW 15 21 - - - - - - - 15.4 1011.2 0.0
01/12:00pm NNW 16 21 - - - - - - - 16.2 1012.1 0.0
01/11:30am NNW 15 21 - - - - - - - 16.7 1012.9 0.0
01/11:00am NNW 14 19 - - - - - - - 17.0 1013.5 0.0
01/10:30am N 10 15 - - - - - - - 15.6 1014.1 0.0
01/10:00am NNE 11 13 - - - - - - - 14.7 1014.4 0.0
01/09:30am NNE 10 14 - - - - - - - 14.5 1015.0 0.0
01/09:00am NE 9 11 - - - - - - - 14.0 1015.5 0.0
01/08:30am NE 10 12 - - - - - - - 13.3 1015.9 0.0
01/08:00am ENE 8 10 - - - - - - - 12.3 1016.3 0.0
01/07:30am ENE 7 10 - - - - - - - 11.2 1016.6 0.0
01/07:00am ENE 8 10 - - - - - - - 11.0 1016.8 0.0
01/06:30am ENE 8 10 - - - - - - - 11.0 1016.8 0.0
01/06:00am NE 4 7 - - - - - - - 10.7 1017.6 0.0
01/05:30am ENE 7 8 - - - - - - - 10.6 1017.7 0.0
01/05:00am NE 7 8 - - - - - - - 10.9 1018.3 0.0
01/04:30am NE 4 7 - - - - - - - 9.4 1018.8 0.0
01/04:00am ENE 5 5 - - - - - - - 8.5 1019.3 0.0
01/03:30am E 4 5 - - - - - - - 8.8 1019.9 0.0
01/03:00am ENE 4 6 - - - - - - - 8.5 1020.4 0.0
01/02:30am ENE 3 4 - - - - - - - 8.4 1021.1 0.0
01/02:00am ENE 4 4 - - - - - - - 8.2 1021.6 0.0
01/01:30am ESE 4 5 - - - - - - - 7.8 1022.2 0.0
01/01:00am NNE 3 4 - - - - - - - 8.6 1022.4 0.0
01/12:30am NNW 5 6 - - - - - - - 9.8 1022.8 0.0
01/12:00am NNW 5 7 - - - - - - - 9.8 1023.2 0.0
 
Date/Time
EST
Wind Sea
Height
m
Swell Vis
km
Cloud Weather Temp
°C
Press
MSL
hPa
Rain since
9am
mm
Dir  Spd
kts
Gust
kts
Height
m
Period
s
Dir
31/11:30pm W 3 6 - - - - - - - 9.7 1023.6 0.0
31/11:00pm WNW 6 9 - - - - - - - 9.8 1024.3 0.0
31/10:30pm W 4 7 - - - - - - - 10.0 1024.8 0.0
31/10:00pm WSW 6 9 - - - - - - - 9.9 1025.1 0.0
31/09:30pm WNW 5 7 - - - - - - - 9.9 1025.3 0.0
31/09:00pm W 5 6 - - - - - - - 9.8 1025.5 0.0
31/08:30pm W 6 8 - - - - - - - 9.6 1025.7 0.0
31/08:00pm W 4 6 - - - - - - - 9.4 1025.8 0.0
31/07:30pm WSW 5 6 - - - - - - - 9.2 1026.0 0.0
31/07:00pm SW 6 6 - - - - - - - 9.3 1026.1 0.0
31/06:30pm SW 7 8 - - - - - - - 9.7 1026.2 0.0
31/06:00pm WSW 7 8 - - - - - - - 9.4 1026.2 0.0
31/05:30pm W 9 11 - - - - - - - 10.5 1026.3 0.0
31/05:00pm W 11 15 - - - - - - - 11.8 1026.6 0.0
31/04:30pm WSW 11 14 - - - - - - - 11.7 1026.9 0.0
31/04:00pm WSW 11 14 - - - - - - - 12.0 1027.2 0.0
31/03:30pm W 12 16 - - - - - - - 12.3 1027.4 0.0
31/03:00pm W 11 14 - - - - - - - 12.9 1027.4 0.0
31/02:30pm W 10 14 - - - - - - - 13.8 1027.6 0.0
31/02:00pm W 11 13 - - - - - - - 12.8 1027.8 0.0
31/01:30pm W 11 14 - - - - - - - 13.2 1028.2 0.0
31/01:00pm WSW 10 14 - - - - - - - 12.9 1028.7 0.0
31/12:30pm WSW 12 16 - - - - - - - 12.5 1029.1 0.0
31/12:00pm W 10 12 - - - - - - - 12.2 1029.3 0.0
31/11:30am WSW 10 14 - - - - - - - 12.3 1029.8 0.0
31/11:00am W 12 16 - - - - - - - 12.4 1030.1 0.0
31/10:30am W 9 11 - - - - - - - 12.7 1030.2 0.0
31/10:00am WSW 10 13 - - - - - - - 12.0 1030.2 0.0
31/09:30am SW 9 12 - - - - - - - 11.7 1030.4 0.0
31/09:00am SW 10 13 - - - - - - - 11.5 1030.5 0.0
31/08:30am WSW 10 16 - - - - - - - 11.2 1030.6 0.0
31/08:00am WSW 10 13 - - - - - - - 11.0 1030.4 0.0
31/07:30am WSW 8 10 - - - - - - - 10.8 1030.1 0.0
31/07:00am WSW 8 11 - - - - - - - 10.5 1030.0 0.0
31/06:30am SW 6 8 - - - - - - - 10.3 1029.8 0.0
31/06:00am WSW 7 14 - - - - - - - 10.2 1029.7 0.0
31/05:30am SW 6 8 - - - - - - - 10.1 1029.7 0.0
31/05:00am SW 7 8 - - - - - - - 10.1 1029.7 0.0

Other formats

Comma delimited format used in spreadsheet applications
http://www.bom.gov.au/fwo/IDT60701/IDT60701.94953.axf

JavaScript Object Notation format (JSON) in row-major order
http://www.bom.gov.au/fwo/IDT60701/IDT60701.94953.json

Data quality

Most of these data are generated automatically and are frequently updated. Quality checks on data are not normally performed. It is possible for incorrect values to appear. Refer to information at About Latest Weather Observations and please check the disclaimer before using these data.